Time;durP1;ratioP1;P1;durP2;ratioP2;P2;SDS_P1;SDS_P2;PMS_P1;PMS_P2;Temp;Humidity;BMP_temperature;BMP_pressure;BME280_temperature;BME280_humidity;BME280_pressure;Samples;Min_cycle;Max_cycle;Signal;HPM_P1;HPM_P2
2022/02/13 00:01:38;;;;;;;;;;;21.40;43.20;;;;;;5155398;27;19923;-47
2022/02/13 00:04:07;;;;;;;;;;;21.40;43.20;;;;;;5155332;27;20013;-48
2022/02/13 00:06:34;;;;;;;;;;;21.40;43.20;;;;;;5141515;27;20313;-44
2022/02/13 00:09:01;;;;;;;;;;;21.40;43.20;;;;;;5155192;27;19923;-46
2022/02/13 00:11:27;;;;;;;;;;;21.40;43.20;;;;;;5155599;27;20014;-47
2022/02/13 00:13:58;;;;;;;;;;;21.40;43.20;;;;;;5154811;27;20369;-50
2022/02/13 00:16:24;;;;;;;;;;;21.40;43.20;;;;;;5155547;27;19926;-44
2022/02/13 00:18:51;;;;;;;;;;;21.40;43.20;;;;;;5155027;27;20370;-48
2022/02/13 00:21:38;;;;;;;;;;;21.40;43.20;;;;;;5139152;27;19927;-51
2022/02/13 00:24:05;;;;;;;;;;;21.40;43.20;;;;;;5155474;27;19923;-44
2022/02/13 00:26:33;;;;;;;;;;;21.40;43.20;;;;;;5155144;27;19923;-45
2022/02/13 00:29:01;;;;;;;;;;;21.40;43.20;;;;;;5154062;27;20408;-48
2022/02/13 00:31:28;;;;;;;;;;;21.40;43.20;;;;;;5155070;27;19975;-52
2022/02/13 00:33:55;;;;;;;;;;;21.40;43.20;;;;;;5155360;27;19927;-44
2022/02/13 00:36:22;;;;;;;;;;;21.40;43.20;;;;;;5155088;27;19923;-46
2022/02/13 00:38:49;;;;;;;;;;;21.40;43.20;;;;;;5154449;27;19923;-44
2022/02/13 00:41:16;;;;;;;;;;;21.40;43.30;;;;;;5155301;27;19923;-46
2022/02/13 00:43:43;;;;;;;;;;;21.40;43.30;;;;;;5153953;27;20019;-46
2022/02/13 00:46:10;;;;;;;;;;;21.40;43.20;;;;;;5155285;27;19971;-46
2022/02/13 00:48:37;;;;;;;;;;;21.40;43.30;;;;;;5154864;27;19976;-45
2022/02/13 00:51:04;;;;;;;;;;;21.30;43.20;;;;;;5155199;27;19923;-45
2022/02/13 00:53:31;;;;;;;;;;;21.40;43.20;;;;;;5154468;27;20010;-43
2022/02/13 00:55:58;;;;;;;;;;;21.30;43.20;;;;;;5155128;27;19955;-46
2022/02/13 00:58:28;;;;;;;;;;;21.30;43.20;;;;;;5154276;27;19973;-47
2022/02/13 01:00:55;;;;;;;;;;;21.40;43.20;;;;;;5133934;27;19928;-46
2022/02/13 01:03:22;;;;;;;;;;;21.30;43.20;;;;;;5134058;28;19924;-44
2022/02/13 01:05:50;;;;;;;;;;;21.30;43.20;;;;;;5145327;27;19923;-46
2022/02/13 01:08:16;;;;;;;;;;;21.30;43.20;;;;;;5155878;27;20025;-44
2022/02/13 01:10:44;;;;;;;;;;;21.30;43.20;;;;;;5158503;27;19930;-48
2022/02/13 01:13:11;;;;;;;;;;;21.30;43.20;;;;;;5159458;27;19923;-45
2022/02/13 01:15:39;;;;;;;;;;;21.30;43.20;;;;;;5157538;27;19923;-46
2022/02/13 01:18:06;;;;;;;;;;;21.30;43.20;;;;;;5158549;27;20375;-46
2022/02/13 01:20:33;;;;;;;;;;;21.30;43.20;;;;;;5158487;27;19923;-44
2022/02/13 01:23:00;;;;;;;;;;;21.30;43.20;;;;;;5157445;27;19923;-44
2022/02/13 01:25:27;;;;;;;;;;;21.30;43.20;;;;;;5158646;27;19923;-45
2022/02/13 01:27:54;;;;;;;;;;;21.30;43.20;;;;;;5158255;27;19923;-45
2022/02/13 01:30:22;;;;;;;;;;;21.30;43.20;;;;;;5157529;27;20343;-48
2022/02/13 01:32:48;;;;;;;;;;;21.30;43.20;;;;;;5158238;27;19967;-44
2022/02/13 01:35:16;;;;;;;;;;;21.30;43.20;;;;;;5158167;27;19968;-47
2022/02/13 01:37:43;;;;;;;;;;;21.30;43.20;;;;;;5139320;27;19962;-45
2022/02/13 01:40:10;;;;;;;;;;;21.30;43.20;;;;;;5158261;27;19967;-47
2022/02/13 01:42:37;;;;;;;;;;;21.30;43.20;;;;;;5158030;27;19923;-44
2022/02/13 01:45:05;;;;;;;;;;;21.30;43.20;;;;;;5157160;27;19923;-50
2022/02/13 01:47:34;;;;;;;;;;;21.30;43.20;;;;;;5158016;27;19923;-52
2022/02/13 01:50:02;;;;;;;;;;;21.30;43.20;;;;;;5157849;27;20022;-46
2022/02/13 01:52:29;;;;;;;;;;;21.30;43.20;;;;;;5155385;27;19927;-46
2022/02/13 01:54:58;;;;;;;;;;;21.30;43.20;;;;;;5137360;27;19963;-49
2022/02/13 01:57:26;;;;;;;;;;;21.30;43.20;;;;;;5137293;27;19927;-50
2022/02/13 01:59:54;;;;;;;;;;;21.30;43.20;;;;;;5143495;27;19976;-48
2022/02/13 02:02:21;;;;;;;;;;;21.30;43.20;;;;;;5157658;27;19923;-46
2022/02/13 02:04:53;;;;;;;;;;;21.30;43.20;;;;;;5155620;27;19959;-46
2022/02/13 02:07:21;;;;;;;;;;;21.30;43.20;;;;;;5137090;27;19992;-45
2022/02/13 02:09:50;;;;;;;;;;;21.30;43.20;;;;;;5136769;27;20374;-45
2022/02/13 02:12:18;;;;;;;;;;;21.30;43.20;;;;;;5137026;27;19927;-45
2022/02/13 02:14:45;;;;;;;;;;;21.30;43.20;;;;;;5140645;27;19923;-46
2022/02/13 02:17:12;;;;;;;;;;;21.30;43.20;;;;;;5157326;27;19953;-48
2022/02/13 02:19:39;;;;;;;;;;;21.30;43.20;;;;;;5157030;27;20297;-47
2022/02/13 02:22:07;;;;;;;;;;;21.30;43.20;;;;;;5157103;27;20417;-48
2022/02/13 02:24:34;;;;;;;;;;;21.30;43.20;;;;;;5140564;27;19945;-44
2022/02/13 02:27:02;;;;;;;;;;;21.30;43.20;;;;;;5136431;27;20011;-47
2022/02/13 02:29:29;;;;;;;;;;;21.30;43.20;;;;;;5136431;27;20362;-45
2022/02/13 02:31:56;;;;;;;;;;;21.30;43.20;;;;;;5136612;27;20344;-46
2022/02/13 02:34:23;;;;;;;;;;;21.30;43.20;;;;;;5136588;27;19931;-45
2022/02/13 02:36:50;;;;;;;;;;;21.30;43.20;;;;;;5137387;27;19992;-44
2022/02/13 02:39:17;;;;;;;;;;;21.30;43.20;;;;;;5135746;27;19973;-50
2022/02/13 02:41:44;;;;;;;;;;;21.30;43.20;;;;;;5136431;27;19980;-50
2022/02/13 02:44:11;;;;;;;;;;;21.20;43.20;;;;;;5136087;27;19923;-51
2022/02/13 02:46:38;;;;;;;;;;;21.20;43.10;;;;;;5153196;27;19929;-50
2022/02/13 02:49:05;;;;;;;;;;;21.20;43.10;;;;;;5138248;27;20018;-50
2022/02/13 02:51:32;;;;;;;;;;;21.30;43.20;;;;;;5156465;27;19926;-49
2022/02/13 02:53:59;;;;;;;;;;;21.20;43.10;;;;;;5137837;27;19976;-50
2022/02/13 02:56:26;;;;;;;;;;;21.20;43.20;;;;;;5156535;27;20366;-46
2022/02/13 02:58:53;;;;;;;;;;;21.30;43.20;;;;;;5156848;27;19930;-46
2022/02/13 03:01:20;;;;;;;;;;;21.20;43.20;;;;;;5155404;27;19976;-50
2022/02/13 03:03:47;;;;;;;;;;;21.20;43.10;;;;;;5156713;27;19923;-48
2022/02/13 03:06:14;;;;;;;;;;;21.20;43.10;;;;;;5141705;27;20394;-45
2022/02/13 03:08:41;;;;;;;;;;;21.20;43.10;;;;;;5135189;27;20348;-48
2022/02/13 03:11:09;;;;;;;;;;;21.20;43.20;;;;;;5117677;27;20344;-47
2022/02/13 03:13:36;;;;;;;;;;;21.20;43.10;;;;;;5135476;27;20447;-48
2022/02/13 03:16:03;;;;;;;;;;;21.20;43.10;;;;;;5145076;27;19968;-49
2022/02/13 03:18:30;;;;;;;;;;;21.20;43.10;;;;;;5156167;27;19930;-47
2022/02/13 03:21:00;;;;;;;;;;;21.20;43.80;;;;;;5156085;27;19976;-47
2022/02/13 03:23:27;;;;;;;;;;;21.20;43.10;;;;;;5155155;27;19985;-48
2022/02/13 03:25:54;;;;;;;;;;;21.20;43.10;;;;;;5155965;27;20370;-45
2022/02/13 03:28:22;;;;;;;;;;;21.20;43.10;;;;;;5156206;27;20022;-45
2022/02/13 03:30:49;;;;;;;;;;;21.20;43.20;;;;;;5154509;27;19927;-45
2022/02/13 03:33:16;;;;;;;;;;;21.20;43.20;;;;;;5156130;27;19984;-46
2022/02/13 03:35:43;;;;;;;;;;;21.20;43.10;;;;;;5156125;27;19923;-47
2022/02/13 03:38:10;;;;;;;;;;;21.20;43.10;;;;;;5156074;27;20340;-44
2022/02/13 03:40:37;;;;;;;;;;;21.20;43.10;;;;;;5137924;27;19976;-45
2022/02/13 03:43:06;;;;;;;;;;;21.20;43.20;;;;;;5135293;27;20011;-47
2022/02/13 03:45:33;;;;;;;;;;;21.20;43.20;;;;;;5137559;27;20335;-46
2022/02/13 03:48:00;;;;;;;;;;;21.20;43.10;;;;;;5155554;27;20390;-47
2022/02/13 03:50:28;;;;;;;;;;;21.20;43.10;;;;;;5155917;27;19923;-47
2022/02/13 03:52:58;;;;;;;;;;;21.20;43.20;;;;;;5155677;27;19923;-45
2022/02/13 03:55:25;;;;;;;;;;;21.20;43.10;;;;;;5154758;27;19929;-45
2022/02/13 03:57:52;;;;;;;;;;;21.20;43.10;;;;;;5155799;27;19971;-44
2022/02/13 04:00:19;;;;;;;;;;;21.20;43.20;;;;;;5155236;27;19923;-46
2022/02/13 04:02:46;;;;;;;;;;;21.20;43.20;;;;;;5155423;27;19946;-46
2022/02/13 04:05:13;;;;;;;;;;;21.20;43.20;;;;;;5149458;27;19924;-50
2022/02/13 04:07:41;;;;;;;;;;;21.20;43.20;;;;;;5134544;27;20403;-47
2022/02/13 04:10:09;;;;;;;;;;;21.20;43.20;;;;;;5144894;27;19923;-44
2022/02/13 04:12:36;;;;;;;;;;;21.20;43.10;;;;;;5156114;27;19923;-46
2022/02/13 04:15:04;;;;;;;;;;;21.20;43.10;;;;;;5155567;27;20331;-46
2022/02/13 04:17:31;;;;;;;;;;;21.20;43.10;;;;;;5154545;27;19923;-46
2022/02/13 04:19:58;;;;;;;;;;;21.20;43.10;;;;;;5155065;27;19987;-45
2022/02/13 04:22:25;;;;;;;;;;;21.20;43.20;;;;;;5154971;27;19974;-45
2022/02/13 04:24:52;;;;;;;;;;;21.20;43.20;;;;;;5154713;27;19991;-44
2022/02/13 04:27:19;;;;;;;;;;;21.20;43.20;;;;;;5155958;27;20362;-48
2022/02/13 04:29:46;;;;;;;;;;;21.20;43.10;;;;;;5155343;27;19927;-46
2022/02/13 04:32:13;;;;;;;;;;;21.20;43.10;;;;;;5141755;27;20325;-44
2022/02/13 04:34:41;;;;;;;;;;;21.20;43.10;;;;;;5134319;28;19973;-46
2022/02/13 04:37:08;;;;;;;;;;;21.20;43.10;;;;;;5134639;28;19923;-45
2022/02/13 04:39:35;;;;;;;;;;;21.20;43.20;;;;;;5134012;27;19990;-44
2022/02/13 04:42:02;;;;;;;;;;;21.20;43.20;;;;;;5116307;27;19923;-47
2022/02/13 04:44:29;;;;;;;;;;;21.20;43.10;;;;;;5120294;27;20394;-46
2022/02/13 04:46:56;;;;;;;;;;;21.10;43.00;;;;;;5147272;27;20006;-48
2022/02/13 04:49:25;;;;;;;;;;;21.20;43.10;;;;;;5159326;27;19923;-46
2022/02/13 04:51:52;;;;;;;;;;;21.20;43.10;;;;;;5158849;27;20382;-45
2022/02/13 04:54:19;;;;;;;;;;;21.20;43.10;;;;;;5158941;27;20371;-46
2022/02/13 04:56:46;;;;;;;;;;;21.20;43.10;;;;;;5140484;27;19975;-46
2022/02/13 04:59:13;;;;;;;;;;;21.10;43.00;;;;;;5159123;27;20006;-44
2022/02/13 05:01:40;;;;;;;;;;;21.20;43.70;;;;;;5158119;27;19966;-45
2022/02/13 05:04:07;;;;;;;;;;;21.10;43.00;;;;;;5159111;27;19968;-47
2022/02/13 05:06:35;;;;;;;;;;;21.10;43.00;;;;;;5141259;27;19924;-45
2022/02/13 05:09:03;;;;;;;;;;;21.10;43.00;;;;;;5137781;27;20375;-47
2022/02/13 05:11:31;;;;;;;;;;;21.10;43.00;;;;;;5154379;27;19969;-48
2022/02/13 05:14:01;;;;;;;;;;;21.10;43.00;;;;;;5158615;27;19968;-49
2022/02/13 05:16:29;;;;;;;;;;;21.10;43.10;;;;;;5157836;27;20437;-48
2022/02/13 05:18:56;;;;;;;;;;;21.10;43.00;;;;;;5158333;27;19972;-45
2022/02/13 05:21:23;;;;;;;;;;;21.10;43.00;;;;;;5158291;27;19976;-45
2022/02/13 05:23:49;;;;;;;;;;;21.10;43.00;;;;;;5158723;27;19923;-44
2022/02/13 05:26:17;;;;;;;;;;;21.10;43.00;;;;;;5157658;27;19954;-46
2022/02/13 05:28:44;;;;;;;;;;;21.10;43.00;;;;;;5158248;27;19962;-47
2022/02/13 05:31:11;;;;;;;;;;;21.10;43.00;;;;;;5158600;27;20334;-47
2022/02/13 05:33:39;;;;;;;;;;;21.10;43.00;;;;;;5157157;27;19922;-46
2022/02/13 05:36:06;;;;;;;;;;;21.10;43.00;;;;;;5158513;27;20347;-48
2022/02/13 05:38:33;;;;;;;;;;;21.10;43.00;;;;;;5158363;27;20264;-46
2022/02/13 05:41:01;;;;;;;;;;;21.10;43.00;;;;;;5157336;27;19923;-44
2022/02/13 05:43:28;;;;;;;;;;;21.10;43.00;;;;;;5158046;27;20025;-48
2022/02/13 05:45:55;;;;;;;;;;;21.10;43.00;;;;;;5157965;27;20018;-48
2022/02/13 05:48:24;;;;;;;;;;;21.10;43.00;;;;;;5157123;27;19922;-46
2022/02/13 05:50:52;;;;;;;;;;;21.10;43.00;;;;;;5157891;27;19930;-47
2022/02/13 05:53:19;;;;;;;;;;;21.10;43.00;;;;;;5138827;27;19959;-54
2022/02/13 05:55:46;;;;;;;;;;;21.10;43.00;;;;;;5157049;27;19923;-52
2022/02/13 05:58:15;;;;;;;;;;;21.10;43.00;;;;;;5157776;27;20382;-45
2022/02/13 06:00:44;;;;;;;;;;;21.10;43.00;;;;;;5158603;27;19923;-49
2022/02/13 06:03:11;;;;;;;;;;;21.10;43.00;;;;;;5138824;27;19923;-49
2022/02/13 06:05:39;;;;;;;;;;;21.10;43.00;;;;;;5148482;27;20282;-52
2022/02/13 06:08:06;;;;;;;;;;;21.10;43.00;;;;;;5136764;27;20381;-52
2022/02/13 06:10:33;;;;;;;;;;;21.10;43.00;;;;;;5138679;27;20018;-51
2022/02/13 06:12:59;;;;;;;;;;;21.10;43.00;;;;;;5157787;27;19977;-50
2022/02/13 06:15:26;;;;;;;;;;;21.10;43.00;;;;;;5157413;27;19948;-49
2022/02/13 06:17:54;;;;;;;;;;;21.10;43.00;;;;;;5156387;27;20338;-50
2022/02/13 06:20:21;;;;;;;;;;;21.10;43.00;;;;;;5157381;27;19962;-48
2022/02/13 06:22:48;;;;;;;;;;;21.10;43.00;;;;;;5157412;27;19923;-48
2022/02/13 06:25:15;;;;;;;;;;;21.10;43.00;;;;;;5157239;27;20408;-50
2022/02/13 06:27:42;;;;;;;;;;;21.10;43.00;;;;;;5156454;27;20013;-46
2022/02/13 06:30:09;;;;;;;;;;;21.10;43.00;;;;;;5157016;27;19949;-47
2022/02/13 06:32:36;;;;;;;;;;;21.10;43.00;;;;;;5156330;27;20335;-46
2022/02/13 06:35:03;;;;;;;;;;;21.10;43.00;;;;;;5157325;27;20323;-50
2022/02/13 06:37:31;;;;;;;;;;;21.10;42.90;;;;;;5157302;27;19927;-45
2022/02/13 06:39:58;;;;;;;;;;;21.10;42.90;;;;;;5156817;27;19948;-50
2022/02/13 06:42:27;;;;;;;;;;;21.10;42.90;;;;;;5156464;27;19927;-49
2022/02/13 06:44:54;;;;;;;;;;;21.10;42.90;;;;;;5157164;27;19923;-46
2022/02/13 06:47:21;;;;;;;;;;;21.10;42.90;;;;;;5156029;27;19923;-48
2022/02/13 06:49:48;;;;;;;;;;;21.10;42.90;;;;;;5156967;27;19923;-47
2022/02/13 06:52:15;;;;;;;;;;;21.10;42.90;;;;;;5156800;27;19923;-50
2022/02/13 06:54:42;;;;;;;;;;;21.10;42.90;;;;;;5156633;27;20374;-48
2022/02/13 06:57:09;;;;;;;;;;;21.10;42.90;;;;;;5155686;27;19923;-44
2022/02/13 06:59:36;;;;;;;;;;;21.10;42.90;;;;;;5156553;27;19923;-48
2022/02/13 07:02:03;;;;;;;;;;;21.10;42.90;;;;;;5156461;27;19968;-48
2022/02/13 07:04:30;;;;;;;;;;;21.10;42.80;;;;;;5155035;27;19923;-45
2022/02/13 07:07:00;;;;;;;;;;;21.10;42.90;;;;;;5135576;27;19988;-45
2022/02/13 07:09:28;;;;;;;;;;;21.10;42.80;;;;;;5135745;27;19972;-44
2022/02/13 07:11:55;;;;;;;;;;;21.10;42.90;;;;;;5135539;27;19980;-51
2022/02/13 07:14:22;;;;;;;;;;;21.10;42.90;;;;;;5135835;27;19924;-46
2022/02/13 07:16:49;;;;;;;;;;;21.10;42.80;;;;;;5135456;27;20386;-48
2022/02/13 07:19:16;;;;;;;;;;;21.10;42.80;;;;;;5150321;27;19969;-47
2022/02/13 07:21:43;;;;;;;;;;;21.10;42.80;;;;;;5156265;27;19923;-45
2022/02/13 07:24:15;;;;;;;;;;;21.10;42.80;;;;;;5156103;27;20029;-46
2022/02/13 07:26:43;;;;;;;;;;;21.10;42.70;;;;;;5155581;27;19923;-45
2022/02/13 07:29:10;;;;;;;;;;;21.10;42.80;;;;;;5156199;27;19991;-45
2022/02/13 07:31:37;;;;;;;;;;;21.10;42.80;;;;;;5156244;27;19923;-46
2022/02/13 07:34:04;;;;;;;;;;;21.10;42.70;;;;;;5154785;27;19952;-46
2022/02/13 07:36:32;;;;;;;;;;;21.10;42.70;;;;;;5156193;27;19923;-45
2022/02/13 07:38:59;;;;;;;;;;;21.10;42.70;;;;;;5156022;27;20355;-50
2022/02/13 07:41:26;;;;;;;;;;;21.10;42.70;;;;;;5154995;27;19952;-46
2022/02/13 07:43:54;;;;;;;;;;;21.20;42.80;;;;;;5155747;27;19952;-47
2022/02/13 07:46:21;;;;;;;;;;;21.10;42.70;;;;;;5155998;27;19976;-48
2022/02/13 07:48:49;;;;;;;;;;;21.20;42.80;;;;;;5154874;27;19923;-43
2022/02/13 07:51:16;;;;;;;;;;;21.20;42.70;;;;;;5155743;27;20332;-45
2022/02/13 07:53:47;;;;;;;;;;;21.10;42.60;;;;;;5155574;27;19977;-45
2022/02/13 07:56:14;;;;;;;;;;;21.20;42.70;;;;;;5155883;27;19975;-45
2022/02/13 07:58:41;;;;;;;;;;;21.20;42.70;;;;;;5155064;27;19923;-44
2022/02/13 08:01:08;;;;;;;;;;;21.20;42.70;;;;;;5155750;27;19988;-45
2022/02/13 08:03:35;;;;;;;;;;;21.20;42.70;;;;;;5154380;27;20386;-44
2022/02/13 08:06:05;;;;;;;;;;;21.20;42.60;;;;;;5142866;27;19930;-51
2022/02/13 08:08:36;;;;;;;;;;;21.20;42.70;;;;;;5134855;27;19924;-45
2022/02/13 08:11:04;;;;;;;;;;;21.20;42.60;;;;;;5134946;27;19923;-44
2022/02/13 08:13:31;;;;;;;;;;;21.20;42.60;;;;;;5134063;27;20401;-45
2022/02/13 08:15:58;;;;;;;;;;;21.10;42.50;;;;;;5134632;27;19923;-45
2022/02/13 08:18:25;;;;;;;;;;;21.20;42.60;;;;;;5136999;27;19966;-45
2022/02/13 08:20:54;;;;;;;;;;;21.20;42.60;;;;;;5155532;27;19923;-46
2022/02/13 08:23:22;;;;;;;;;;;21.20;42.50;;;;;;5154999;27;19923;-44
2022/02/13 08:25:49;;;;;;;;;;;21.20;42.50;;;;;;5155452;27;19972;-44
2022/02/13 08:28:16;;;;;;;;;;;21.20;42.50;;;;;;5136393;27;20340;-49
2022/02/13 08:30:44;;;;;;;;;;;21.20;42.50;;;;;;5155378;27;20259;-45
2022/02/13 08:33:10;;;;;;;;;;;21.20;42.50;;;;;;5136484;27;19923;-45
2022/02/13 08:35:38;;;;;;;;;;;21.30;42.60;;;;;;5134348;27;19923;-44
2022/02/13 08:38:05;;;;;;;;;;;21.30;42.60;;;;;;5134691;28;19967;-45
2022/02/13 08:40:33;;;;;;;;;;;21.20;42.50;;;;;;5134480;28;19966;-45
2022/02/13 08:43:01;;;;;;;;;;;21.30;42.50;;;;;;5133892;27;19923;-45
2022/02/13 08:45:29;;;;;;;;;;;21.30;42.50;;;;;;5134601;28;19990;-46
2022/02/13 08:47:56;;;;;;;;;;;21.30;42.50;;;;;;5134559;28;19928;-44
2022/02/13 08:50:24;;;;;;;;;;;21.30;42.40;;;;;;5150652;27;19926;-47
2022/02/13 08:52:51;;;;;;;;;;;21.30;42.40;;;;;;5154717;27;19923;-47
2022/02/13 08:55:18;;;;;;;;;;;21.30;42.40;;;;;;5155153;27;19923;-48
2022/02/13 08:57:46;;;;;;;;;;;21.30;42.40;;;;;;5154040;27;19924;-50
2022/02/13 09:00:14;;;;;;;;;;;21.30;42.30;;;;;;5154702;27;19923;-46
2022/02/13 09:02:41;;;;;;;;;;;21.30;42.30;;;;;;5154668;27;19930;-45
2022/02/13 09:05:08;;;;;;;;;;;21.30;42.30;;;;;;5148900;27;19924;-45
2022/02/13 09:07:36;;;;;;;;;;;21.30;42.30;;;;;;5134000;28;19935;-46
2022/02/13 09:10:08;;;;;;;;;;;21.30;42.20;;;;;;5133794;28;19923;-51
2022/02/13 09:12:35;;;;;;;;;;;21.30;42.20;;;;;;5136120;27;20325;-51
2022/02/13 09:15:02;;;;;;;;;;;21.30;42.20;;;;;;5154647;27;19970;-50
2022/02/13 09:17:29;;;;;;;;;;;21.30;42.10;;;;;;5136659;27;20327;-49
2022/02/13 09:19:56;;;;;;;;;;;21.30;42.10;;;;;;5153447;27;19923;-48
2022/02/13 09:22:23;;;;;;;;;;;21.40;42.10;;;;;;5154423;27;20397;-45
2022/02/13 09:24:50;;;;;;;;;;;21.40;42.10;;;;;;5154631;27;20287;-53
2022/02/13 09:27:21;;;;;;;;;;;21.40;42.00;;;;;;5154981;27;19962;-50
2022/02/13 09:29:48;;;;;;;;;;;21.40;42.00;;;;;;5156960;27;19927;-48
2022/02/13 09:32:15;;;;;;;;;;;21.40;42.00;;;;;;5158167;27;19923;-52
2022/02/13 09:34:42;;;;;;;;;;;21.40;41.90;;;;;;5139118;27;19923;-51
2022/02/13 09:37:09;;;;;;;;;;;21.40;41.90;;;;;;5159035;27;19926;-46
2022/02/13 09:39:36;;;;;;;;;;;21.40;41.80;;;;;;5158342;27;20026;-49
2022/02/13 09:42:03;;;;;;;;;;;21.40;41.80;;;;;;5158079;27;19962;-45
2022/02/13 09:44:30;;;;;;;;;;;21.40;41.80;;;;;;5141483;27;20342;-47
2022/02/13 09:46:58;;;;;;;;;;;21.50;41.80;;;;;;5137530;27;19923;-53
2022/02/13 09:49:25;;;;;;;;;;;21.40;41.70;;;;;;5140399;27;20250;-48
2022/02/13 09:51:53;;;;;;;;;;;21.40;41.70;;;;;;5158042;27;19923;-45
2022/02/13 09:54:21;;;;;;;;;;;21.50;41.70;;;;;;5158153;27;20290;-51
2022/02/13 09:56:49;;;;;;;;;;;21.50;41.70;;;;;;5158141;27;20267;-49
2022/02/13 09:59:18;;;;;;;;;;;21.50;41.60;;;;;;5157600;27;19930;-51
2022/02/13 10:01:46;;;;;;;;;;;21.50;41.60;;;;;;5157696;27;19952;-44
2022/02/13 10:04:13;;;;;;;;;;;21.50;41.60;;;;;;5156828;27;19966;-46
2022/02/13 10:06:42;;;;;;;;;;;21.50;41.50;;;;;;5155532;27;19923;-49
2022/02/13 10:09:09;;;;;;;;;;;21.50;41.50;;;;;;5157761;27;19965;-48
2022/02/13 10:11:38;;;;;;;;;;;21.50;41.50;;;;;;5157837;27;19972;-47
2022/02/13 10:14:13;;;;;;;;;;;21.60;41.50;;;;;;5156799;27;20267;-47
2022/02/13 10:16:41;;;;;;;;;;;21.60;41.50;;;;;;5157792;27;19923;-45
2022/02/13 10:19:09;;;;;;;;;;;21.60;41.40;;;;;;5157349;27;19923;-49
2022/02/13 10:21:49;;;;;;;;;;;21.60;41.40;;;;;;5155726;27;20132;-49
2022/02/13 10:24:24;;;;;;;;;;;21.60;41.40;;;;;;5157225;27;19992;-48
2022/02/13 10:26:57;;;;;;;;;;;21.60;41.30;;;;;;5157606;27;19923;-46
2022/02/13 10:29:28;;;;;;;;;;;21.60;41.30;;;;;;5156684;27;19927;-49
2022/02/13 10:32:13;;;;;;;;;;;21.70;41.30;;;;;;5157487;27;19975;-45
2022/02/13 10:34:56;;;;;;;;;;;21.70;41.30;;;;;;5156024;27;19959;-48
2022/02/13 10:37:41;;;;;;;;;;;21.70;41.30;;;;;;5139043;27;19972;-47
2022/02/13 10:40:09;;;;;;;;;;;21.70;41.20;;;;;;5156793;27;19923;-48
2022/02/13 10:42:37;;;;;;;;;;;21.70;41.20;;;;;;5156917;27;19973;-48
2022/02/13 10:45:18;;;;;;;;;;;21.70;41.10;;;;;;5156409;27;19923;-44
2022/02/13 10:47:46;;;;;;;;;;;21.70;41.10;;;;;;5157132;27;19923;-48
2022/02/13 10:50:14;;;;;;;;;;;21.70;41.10;;;;;;5137440;27;20021;-44
2022/02/13 10:52:41;;;;;;;;;;;21.70;41.10;;;;;;5156806;27;19968;-44
2022/02/13 10:55:09;;;;;;;;;;;21.80;41.10;;;;;;5156634;27;20017;-46
2022/02/13 10:57:37;;;;;;;;;;;21.80;41.10;;;;;;5138350;27;20276;-45
2022/02/13 11:00:05;;;;;;;;;;;21.80;41.10;;;;;;5142123;27;20383;-49
2022/02/13 11:02:32;;;;;;;;;;;21.80;41.10;;;;;;5136080;27;19924;-46
2022/02/13 11:05:00;;;;;;;;;;;21.80;41.10;;;;;;5138675;27;20050;-46
2022/02/13 11:07:27;;;;;;;;;;;21.80;41.00;;;;;;5156725;27;19966;-45
2022/02/13 11:09:54;;;;;;;;;;;21.80;41.00;;;;;;5156144;27;19970;-47
2022/02/13 11:12:21;;;;;;;;;;;21.80;41.00;;;;;;5137976;27;19923;-47
2022/02/13 11:14:48;;;;;;;;;;;21.90;41.00;;;;;;5137186;27;19929;-47
2022/02/13 11:17:30;;;;;;;;;;;21.90;41.00;;;;;;5156270;27;20385;-48
2022/02/13 11:19:57;;;;;;;;;;;21.90;40.90;;;;;;5155433;27;19927;-49
2022/02/13 11:22:37;;;;;;;;;;;21.90;40.90;;;;;;5155692;27;19923;-49
2022/02/13 11:25:05;;;;;;;;;;;21.90;40.90;;;;;;5156379;27;20368;-48
2022/02/13 11:27:52;;;;;;;;;;;21.90;40.90;;;;;;5155993;27;20009;-47
2022/02/13 11:30:37;;;;;;;;;;;21.90;40.90;;;;;;5155169;27;20499;-47
2022/02/13 11:33:04;;;;;;;;;;;22.00;40.90;;;;;;5155940;27;20025;-50
2022/02/13 11:35:51;;;;;;;;;;;22.00;40.90;;;;;;5155098;27;20014;-48
2022/02/13 11:38:36;;;;;;;;;;;22.00;40.90;;;;;;5155739;27;19981;-46
2022/02/13 11:41:07;;;;;;;;;;;22.00;40.90;;;;;;5156069;27;19954;-49
2022/02/13 11:43:49;;;;;;;;;;;22.00;41.00;;;;;;5155721;27;20434;-46
2022/02/13 11:46:25;;;;;;;;;;;22.00;40.90;;;;;;5154913;27;19977;-47
2022/02/13 11:48:57;;;;;;;;;;;22.00;40.90;;;;;;5155939;27;19923;-46
2022/02/13 11:51:42;;;;;;;;;;;22.00;41.00;;;;;;5153828;27;19948;-49
2022/02/13 11:54:09;;;;;;;;;;;22.00;40.90;;;;;;5137524;27;19962;-44
2022/02/13 11:56:36;;;;;;;;;;;22.10;41.00;;;;;;5137235;27;19958;-45
2022/02/13 11:59:03;;;;;;;;;;;22.00;40.90;;;;;;5155517;27;19923;-45
2022/02/13 12:01:36;;;;;;;;;;;22.10;41.00;;;;;;5153609;27;20446;-44
2022/02/13 12:04:03;;;;;;;;;;;22.10;41.00;;;;;;5155741;27;20281;-44
2022/02/13 12:06:31;;;;;;;;;;;22.10;41.00;;;;;;5128798;27;19958;-46
2022/02/13 12:09:09;;;;;;;;;;;22.10;41.00;;;;;;5155543;27;19927;-46
2022/02/13 12:11:40;;;;;;;;;;;22.10;40.90;;;;;;5155618;27;19972;-44
2022/02/13 12:14:14;;;;;;;;;;;22.10;40.90;;;;;;5155297;27;20371;-45
2022/02/13 12:16:48;;;;;;;;;;;22.10;40.90;;;;;;5154678;27;20339;-46
2022/02/13 12:19:24;;;;;;;;;;;22.10;40.90;;;;;;5155185;27;19962;-48
2022/02/13 12:22:02;;;;;;;;;;;22.10;40.90;;;;;;5135842;27;20328;-48
2022/02/13 12:24:29;;;;;;;;;;;22.20;41.00;;;;;;5155518;27;19959;-52
2022/02/13 12:27:00;;;;;;;;;;;22.10;40.90;;;;;;5155489;27;20340;-53
2022/02/13 12:29:27;;;;;;;;;;;22.20;41.00;;;;;;5155455;27;19966;-50
2022/02/13 12:32:10;;;;;;;;;;;22.10;40.90;;;;;;5154503;27;19923;-50
2022/02/13 12:34:54;;;;;;;;;;;22.20;41.00;;;;;;5155434;27;19927;-50
2022/02/13 12:37:32;;;;;;;;;;;22.20;41.00;;;;;;5154283;27;20312;-52
2022/02/13 12:39:59;;;;;;;;;;;22.20;41.00;;;;;;5154968;27;19981;-53
2022/02/13 12:42:31;;;;;;;;;;;22.20;40.90;;;;;;5155315;27;20293;-52
2022/02/13 12:44:59;;;;;;;;;;;22.20;41.00;;;;;;5154226;27;19949;-51
2022/02/13 12:47:27;;;;;;;;;;;22.20;41.00;;;;;;5156123;27;19930;-50
2022/02/13 12:49:55;;;;;;;;;;;22.20;41.60;;;;;;5155131;27;19923;-51
2022/02/13 12:52:22;;;;;;;;;;;22.20;40.90;;;;;;5153991;27;20013;-47
2022/02/13 12:54:49;;;;;;;;;;;22.20;41.00;;;;;;5155177;27;20361;-51
2022/02/13 12:57:19;;;;;;;;;;;22.20;41.00;;;;;;5154853;27;20010;-49
2022/02/13 12:59:47;;;;;;;;;;;22.20;40.90;;;;;;5154822;27;19923;-49
2022/02/13 13:02:17;;;;;;;;;;;22.20;40.90;;;;;;5133637;27;19924;-45
2022/02/13 13:04:44;;;;;;;;;;;22.20;40.90;;;;;;5138476;27;19927;-46
2022/02/13 13:07:17;;;;;;;;;;;22.20;40.90;;;;;;5157742;27;19930;-49
2022/02/13 13:09:44;;;;;;;;;;;22.30;41.00;;;;;;5158927;27;20208;-52
2022/02/13 13:12:15;;;;;;;;;;;22.30;41.00;;;;;;5158574;27;19923;-46
2022/02/13 13:14:43;;;;;;;;;;;22.30;41.00;;;;;;5158701;27;19923;-50
2022/02/13 13:17:10;;;;;;;;;;;22.30;41.00;;;;;;5158182;27;19923;-44
2022/02/13 13:19:39;;;;;;;;;;;22.30;41.10;;;;;;5158435;27;19924;-44
2022/02/13 13:22:16;;;;;;;;;;;22.30;41.00;;;;;;5157283;27;20430;-49
2022/02/13 13:24:43;;;;;;;;;;;22.30;41.00;;;;;;5158793;27;19927;-49
2022/02/13 13:27:16;;;;;;;;;;;22.30;41.00;;;;;;5158766;27;19923;-46
2022/02/13 13:29:43;;;;;;;;;;;22.30;41.00;;;;;;5158753;27;19923;-46
2022/02/13 13:32:12;;;;;;;;;;;22.30;41.10;;;;;;5157543;27;20006;-48
2022/02/13 13:34:48;;;;;;;;;;;22.30;41.10;;;;;;5158551;27;19923;-45
2022/02/13 13:37:35;;;;;;;;;;;22.30;41.10;;;;;;5157492;27;20345;-47
2022/02/13 13:40:07;;;;;;;;;;;22.30;41.00;;;;;;5158179;27;19972;-45
2022/02/13 13:42:42;;;;;;;;;;;22.30;41.00;;;;;;5158095;27;19923;-45
2022/02/13 13:45:09;;;;;;;;;;;22.30;41.00;;;;;;5158390;27;19977;-48
2022/02/13 13:47:38;;;;;;;;;;;22.30;41.10;;;;;;5157227;27;20394;-44
2022/02/13 13:50:05;;;;;;;;;;;22.40;41.10;;;;;;5158329;27;20357;-45
2022/02/13 13:52:33;;;;;;;;;;;22.30;41.00;;;;;;5156583;27;19965;-49
2022/02/13 13:55:00;;;;;;;;;;;22.40;41.10;;;;;;5157846;27;19973;-47
2022/02/13 13:57:27;;;;;;;;;;;22.40;41.20;;;;;;5157791;27;19973;-49
2022/02/13 13:59:54;;;;;;;;;;;22.30;41.10;;;;;;5158074;27;19924;-45
2022/02/13 14:02:22;;;;;;;;;;;22.30;41.10;;;;;;5157320;27;19923;-44
2022/02/13 14:04:50;;;;;;;;;;;22.30;41.10;;;;;;5155567;27;19923;-47
2022/02/13 14:07:17;;;;;;;;;;;22.30;41.10;;;;;;5123052;27;20367;-46
2022/02/13 14:09:44;;;;;;;;;;;22.40;41.20;;;;;;5157789;27;19923;-44
2022/02/13 14:12:12;;;;;;;;;;;22.40;41.20;;;;;;5157809;27;20267;-44
2022/02/13 14:14:39;;;;;;;;;;;22.40;41.20;;;;;;5157103;27;19970;-45
2022/02/13 14:17:09;;;;;;;;;;;22.40;41.20;;;;;;5156952;27;19923;-45
2022/02/13 14:19:37;;;;;;;;;;;22.40;41.20;;;;;;5157224;27;19973;-45
2022/02/13 14:22:04;;;;;;;;;;;22.40;41.20;;;;;;5156374;27;20345;-46
2022/02/13 14:24:31;;;;;;;;;;;22.40;41.20;;;;;;5157257;27;20022;-48